createdAt,value
2023-03-26T00:02:18.567Z,13.67
2023-03-26T00:04:51.066Z,14.16
2023-03-26T00:07:22.831Z,14.20
2023-03-26T00:09:55.707Z,14.40
2023-03-26T00:12:27.252Z,14.32
2023-03-26T00:14:58.744Z,14.36
2023-03-26T00:17:30.313Z,13.40
2023-03-26T00:20:01.949Z,13.14
2023-03-26T00:22:33.964Z,14.11
2023-03-26T00:25:07.405Z,14.22
2023-03-26T00:27:39.060Z,14.27
2023-03-26T00:30:11.279Z,14.31
2023-03-26T00:32:43.885Z,14.31
2023-03-26T00:35:25.451Z,14.32
2023-03-26T00:38:00.634Z,14.15
2023-03-26T00:40:36.735Z,13.96
2023-03-26T00:43:18.610Z,14.16
2023-03-26T00:45:54.194Z,14.43
2023-03-26T00:48:42.217Z,14.57
2023-03-26T00:51:19.676Z,14.40
2023-03-26T00:53:51.680Z,13.86
2023-03-26T00:56:24.519Z,13.26
2023-03-26T00:58:57.647Z,13.78
2023-03-26T01:01:30.434Z,13.99
2023-03-26T01:04:30.517Z,13.47
2023-03-26T01:07:13.482Z,13.42
2023-03-26T01:09:51.298Z,13.43
2023-03-26T01:12:27.885Z,14.07
2023-03-26T01:15:01.791Z,14.29
2023-03-26T01:17:37.824Z,13.65
2023-03-26T01:20:30.381Z,13.47
2023-03-26T01:23:06.324Z,13.33
2023-03-26T01:25:48.379Z,13.18
2023-03-26T01:28:20.892Z,13.04
2023-03-26T01:31:29.880Z,13.22
2023-03-26T01:34:24.118Z,12.83
2023-03-26T01:37:26.816Z,12.05
2023-03-26T01:40:08.530Z,13.01
2023-03-26T01:43:04.124Z,13.21
2023-03-26T01:45:40.618Z,12.70
2023-03-26T01:48:12.975Z,13.89
2023-03-26T01:50:44.959Z,13.96
2023-03-26T01:53:16.611Z,14.00
2023-03-26T01:56:32.051Z,14.00
2023-03-26T01:59:16.867Z,13.96
2023-03-26T02:02:09.036Z,13.98
2023-03-26T02:05:09.626Z,13.83
2023-03-26T02:07:54.318Z,13.80
2023-03-26T02:10:30.084Z,13.75
2023-03-26T02:13:02.672Z,13.72
2023-03-26T02:15:34.436Z,13.55
2023-03-26T02:18:06.195Z,13.30
2023-03-26T02:20:37.865Z,13.41
2023-03-26T02:23:09.828Z,13.42
2023-03-26T02:25:43.845Z,13.49
2023-03-26T02:28:16.977Z,13.47
2023-03-26T02:30:48.533Z,13.45
2023-03-26T02:33:21.627Z,13.35
2023-03-26T02:35:53.574Z,13.29
2023-03-26T02:38:29.162Z,13.32
2023-03-26T02:41:01.906Z,13.21
2023-03-26T02:43:33.487Z,13.22
2023-03-26T02:46:05.226Z,13.20
2023-03-26T02:48:36.984Z,13.34
2023-03-26T02:51:08.652Z,13.32
2023-03-26T02:53:41.276Z,13.27
2023-03-26T02:56:13.134Z,13.19
2023-03-26T02:58:44.673Z,13.02
2023-03-26T03:01:20.530Z,12.92
2023-03-26T03:03:52.112Z,12.71
2023-03-26T03:06:30.889Z,12.59
2023-03-26T03:09:02.786Z,12.49
2023-03-26T03:11:35.534Z,12.57
2023-03-26T03:14:07.512Z,12.72
2023-03-26T03:16:39.185Z,12.78
2023-03-26T03:19:12.495Z,12.97
2023-03-26T03:21:44.125Z,13.03
2023-03-26T03:24:18.612Z,13.08
2023-03-26T03:26:50.350Z,13.10
2023-03-26T03:29:21.912Z,12.63
2023-03-26T03:31:53.617Z,12.38
2023-03-26T03:34:27.583Z,12.68
2023-03-26T03:36:59.087Z,12.64
2023-03-26T03:39:30.725Z,12.95
2023-03-26T03:42:02.257Z,13.04
2023-03-26T03:44:33.922Z,12.87
2023-03-26T03:47:06.999Z,12.78
2023-03-26T03:49:38.753Z,12.64
2023-03-26T03:52:10.311Z,12.70
2023-03-26T03:54:45.143Z,12.62
2023-03-26T03:57:18.804Z,12.63
2023-03-26T03:59:50.458Z,12.63
2023-03-26T04:02:26.662Z,12.64
2023-03-26T04:04:58.592Z,12.65
2023-03-26T04:07:32.149Z,12.73
2023-03-26T04:10:05.933Z,12.92
2023-03-26T04:12:37.724Z,13.10
2023-03-26T04:15:09.673Z,12.90
2023-03-26T04:17:44.946Z,13.03
2023-03-26T04:20:16.451Z,12.91
2023-03-26T04:22:48.024Z,12.72
2023-03-26T04:25:20.052Z,12.73
2023-03-26T04:27:51.596Z,12.71
2023-03-26T04:30:23.208Z,12.50
2023-03-26T04:32:58.442Z,11.81
2023-03-26T04:35:34.955Z,12.03
2023-03-26T04:38:06.692Z,11.96
2023-03-26T04:40:39.087Z,11.73
2023-03-26T04:43:18.709Z,11.85
2023-03-26T04:45:50.220Z,11.59
2023-03-26T04:48:22.967Z,11.72
2023-03-26T04:50:54.722Z,11.76
2023-03-26T04:53:26.322Z,11.81
2023-03-26T04:56:13.475Z,11.76
2023-03-26T04:58:45.060Z,11.63
2023-03-26T05:01:16.724Z,11.50
2023-03-26T05:03:48.439Z,11.51
2023-03-26T05:06:20.757Z,11.29
2023-03-26T05:08:52.293Z,11.44
2023-03-26T05:11:23.824Z,11.19
2023-03-26T05:13:56.939Z,11.27
2023-03-26T05:16:29.499Z,10.78
2023-03-26T05:19:01.057Z,10.52
2023-03-26T05:21:32.701Z,10.71
2023-03-26T05:24:06.280Z,10.78
2023-03-26T05:26:38.124Z,10.87
2023-03-26T05:29:09.633Z,10.94
2023-03-26T05:31:41.294Z,10.68
2023-03-26T05:34:13.270Z,10.77
2023-03-26T05:36:46.961Z,10.89
2023-03-26T05:39:18.947Z,11.26
2023-03-26T05:41:50.648Z,11.50
2023-03-26T05:44:22.145Z,11.31
2023-03-26T05:46:53.820Z,10.90
2023-03-26T05:49:25.445Z,10.97
2023-03-26T05:51:57.016Z,11.18
2023-03-26T05:54:28.569Z,11.22
2023-03-26T05:57:07.777Z,11.34
2023-03-26T05:59:39.310Z,11.30
2023-03-26T06:02:11.531Z,11.10
2023-03-26T06:04:45.751Z,11.05
2023-03-26T06:07:21.024Z,10.97
2023-03-26T06:09:53.189Z,11.07
2023-03-26T06:12:24.709Z,11.32
2023-03-26T06:14:56.244Z,11.24
2023-03-26T06:17:27.850Z,10.94
2023-03-26T06:19:59.367Z,10.81
2023-03-26T06:22:30.923Z,11.41
2023-03-26T06:25:06.584Z,11.84
2023-03-26T06:27:38.188Z,11.90
2023-03-26T06:30:11.161Z,11.87
2023-03-26T06:32:42.782Z,11.74
2023-03-26T06:35:14.444Z,11.77
2023-03-26T06:37:46.280Z,12.19
2023-03-26T06:40:17.884Z,12.35
2023-03-26T06:43:06.944Z,11.95
2023-03-26T06:45:43.918Z,12.17
2023-03-26T06:48:15.435Z,12.34
2023-03-26T06:50:47.017Z,11.86
2023-03-26T06:53:18.847Z,12.24
2023-03-26T06:55:50.339Z,12.29
2023-03-26T06:58:22.351Z,11.67
2023-03-26T07:00:55.511Z,11.97
2023-03-26T07:03:28.239Z,12.06
2023-03-26T07:05:59.889Z,12.02
2023-03-26T07:08:31.648Z,11.91
2023-03-26T07:11:03.337Z,11.61
2023-03-26T07:13:34.948Z,11.96
2023-03-26T07:16:07.296Z,12.20
2023-03-26T07:18:38.925Z,12.37
2023-03-26T07:21:11.434Z,12.35
2023-03-26T07:23:43.468Z,12.44
2023-03-26T07:26:39.583Z,12.40
2023-03-26T07:29:35.790Z,12.44
2023-03-26T07:32:47.460Z,12.48
2023-03-26T07:35:50.282Z,12.44
2023-03-26T07:38:31.268Z,12.34
2023-03-26T07:41:24.408Z,11.83
2023-03-26T07:44:17.537Z,12.04
2023-03-26T07:46:53.224Z,12.32
2023-03-26T07:49:25.321Z,12.33
2023-03-26T07:51:57.594Z,12.44
2023-03-26T07:54:29.415Z,12.51
2023-03-26T07:57:09.017Z,12.51
2023-03-26T08:00:00.172Z,12.03
2023-03-26T08:02:46.178Z,11.48
2023-03-26T08:05:30.353Z,11.83
2023-03-26T08:08:20.727Z,12.28
2023-03-26T08:11:14.900Z,11.05
2023-03-26T08:14:21.824Z,11.05
2023-03-26T08:17:00.669Z,11.00
2023-03-26T08:19:50.157Z,10.81
2023-03-26T08:22:46.058Z,11.13
2023-03-26T08:25:33.028Z,10.51
2023-03-26T08:28:40.383Z,11.02
2023-03-26T08:31:15.307Z,10.82
2023-03-26T08:33:46.999Z,10.68
2023-03-26T08:36:18.543Z,10.92
2023-03-26T08:38:51.017Z,10.59
2023-03-26T08:42:19.902Z,10.58
2023-03-26T08:45:40.600Z,11.30
2023-03-26T08:48:40.275Z,9.92
2023-03-26T08:52:01.871Z,10.62
2023-03-26T08:55:12.484Z,10.18
2023-03-26T08:58:36.713Z,10.82
2023-03-26T09:01:37.325Z,10.95
2023-03-26T09:04:18.081Z,10.55
2023-03-26T09:07:39.609Z,10.28
2023-03-26T09:10:46.695Z,10.87
2023-03-26T09:13:42.910Z,10.36
2023-03-26T09:16:45.589Z,10.22
2023-03-26T09:19:48.491Z,10.60
2023-03-26T09:22:55.681Z,10.40
2023-03-26T09:25:39.773Z,10.73
2023-03-26T09:28:36.384Z,11.06
2023-03-26T09:31:48.160Z,11.46
2023-03-26T09:34:44.211Z,11.49
2023-03-26T09:37:34.069Z,11.31
2023-03-26T09:40:48.175Z,10.88
2023-03-26T09:43:41.592Z,10.74
2023-03-26T09:46:30.268Z,10.89
2023-03-26T09:49:25.517Z,10.75
2023-03-26T09:52:41.522Z,10.38
2023-03-26T09:55:27.210Z,10.21
2023-03-26T09:58:45.987Z,10.35
2023-03-26T10:01:57.385Z,10.66
2023-03-26T10:05:20.039Z,10.80
2023-03-26T10:08:32.236Z,10.70
2023-03-26T10:11:59.233Z,10.67
2023-03-26T10:15:11.843Z,11.10
2023-03-26T10:18:27.900Z,11.79
2023-03-26T10:21:20.194Z,11.98
2023-03-26T10:24:05.999Z,12.56
2023-03-26T10:27:10.781Z,12.62
2023-03-26T10:30:23.362Z,12.91
2023-03-26T10:33:02.489Z,13.12
2023-03-26T10:36:02.378Z,13.73
2023-03-26T10:39:11.692Z,13.42
2023-03-26T10:42:06.084Z,12.41
2023-03-26T10:44:44.786Z,12.24
2023-03-26T10:47:40.556Z,12.39
2023-03-26T10:50:50.835Z,13.00
2023-03-26T10:53:47.165Z,12.64
2023-03-26T10:56:49.723Z,13.47
2023-03-26T10:59:21.474Z,13.48
2023-03-26T11:02:44.615Z,13.98
2023-03-26T11:05:58.946Z,14.02
2023-03-26T11:08:52.073Z,14.17
2023-03-26T11:11:36.392Z,14.14
2023-03-26T11:14:41.801Z,13.68
2023-03-26T11:17:43.529Z,14.21
2023-03-26T11:20:27.650Z,13.79
2023-03-26T11:23:28.082Z,13.99
2023-03-26T11:26:09.828Z,13.90
2023-03-26T11:29:32.356Z,13.49
2023-03-26T11:32:27.309Z,13.05
2023-03-26T11:35:41.142Z,13.21
2023-03-26T11:38:23.505Z,14.08
2023-03-26T11:40:58.163Z,14.41
2023-03-26T11:43:35.738Z,14.55
2023-03-26T11:46:14.664Z,14.35
2023-03-26T11:49:11.202Z,14.34
2023-03-26T11:51:47.355Z,14.36
2023-03-26T11:54:21.362Z,14.70
2023-03-26T11:57:05.852Z,14.91
2023-03-26T11:59:57.083Z,15.64
2023-03-26T12:02:38.415Z,16.35
2023-03-26T12:05:48.495Z,16.14
2023-03-26T12:08:31.064Z,16.30
2023-03-26T12:11:12.185Z,16.05
2023-03-26T12:13:55.418Z,15.78
2023-03-26T12:16:28.127Z,15.90
2023-03-26T12:19:19.658Z,15.57
2023-03-26T12:21:52.982Z,15.68
2023-03-26T12:24:32.361Z,16.26
2023-03-26T12:27:28.267Z,17.07
2023-03-26T12:30:21.528Z,16.54
2023-03-26T12:33:00.882Z,17.17
2023-03-26T12:35:35.642Z,17.67
2023-03-26T12:38:33.351Z,18.38
2023-03-26T12:41:05.277Z,17.62
2023-03-26T12:44:52.689Z,16.26
2023-03-26T12:47:56.447Z,16.27
2023-03-26T12:49:39.380Z,16.78
2023-03-26T12:52:33.250Z,16.40
2023-03-26T12:55:56.561Z,16.38
2023-03-26T12:59:09.394Z,16.35
2023-03-26T13:02:37.693Z,15.95
2023-03-26T13:06:15.708Z,16.07
2023-03-26T13:09:17.550Z,16.76
2023-03-26T13:12:19.636Z,17.14
2023-03-26T13:15:08.170Z,15.83
2023-03-26T13:18:39.232Z,16.02
2023-03-26T13:21:28.590Z,15.88
2023-03-26T13:24:18.004Z,15.79
2023-03-26T13:27:27.183Z,15.08
2023-03-26T13:30:29.291Z,14.99
2023-03-26T13:33:38.590Z,16.80
2023-03-26T13:36:23.701Z,14.86
2023-03-26T13:39:04.950Z,14.62
2023-03-26T13:41:39.557Z,15.28
2023-03-26T13:44:38.809Z,16.27
2023-03-26T13:47:24.043Z,14.58
2023-03-26T13:50:18.608Z,13.96
2023-03-26T13:52:58.838Z,15.17
2023-03-26T13:55:47.486Z,17.13
2023-03-26T13:58:50.532Z,18.95
2023-03-26T14:01:45.498Z,17.99
2023-03-26T14:04:26.639Z,16.57
2023-03-26T14:07:11.451Z,18.63
2023-03-26T14:09:57.262Z,18.20
2023-03-26T14:12:54.106Z,19.13
2023-03-26T14:15:42.139Z,20.57
2023-03-26T14:18:31.392Z,20.59
2023-03-26T14:21:17.192Z,19.14
2023-03-26T14:24:46.659Z,19.38
2023-03-26T14:27:36.880Z,18.87
2023-03-26T14:30:27.506Z,17.89
2023-03-26T14:33:43.625Z,16.43
2023-03-26T14:36:41.507Z,14.30
2023-03-26T14:39:22.417Z,14.66
2023-03-26T14:42:17.815Z,14.59
2023-03-26T14:45:41.679Z,14.28
2023-03-26T14:48:48.887Z,13.73
2023-03-26T14:51:48.147Z,13.03
2023-03-26T14:54:26.144Z,12.87
2023-03-26T14:57:55.610Z,12.89
2023-03-26T15:01:03.906Z,13.04
2023-03-26T15:04:05.662Z,13.18
2023-03-26T15:07:19.698Z,12.95
2023-03-26T15:10:25.486Z,11.58
2023-03-26T15:13:07.810Z,10.96
2023-03-26T15:16:16.111Z,10.43
2023-03-26T15:19:34.719Z,9.37
2023-03-26T15:23:03.191Z,10.03
2023-03-26T15:26:23.423Z,10.33
2023-03-26T15:30:07.999Z,9.44
2023-03-26T15:33:07.764Z,7.97
2023-03-26T15:35:57.603Z,7.91
2023-03-26T15:38:44.112Z,7.84
2023-03-26T15:41:50.235Z,7.62
2023-03-26T15:45:08.847Z,7.64
2023-03-26T15:47:56.415Z,7.93
2023-03-26T15:51:10.371Z,8.34
2023-03-26T15:54:05.363Z,8.41
2023-03-26T15:57:16.698Z,8.46
2023-03-26T16:00:25.114Z,8.56
2023-03-26T16:03:15.546Z,8.69
2023-03-26T16:06:06.227Z,8.85
2023-03-26T16:09:26.237Z,8.91
2023-03-26T16:12:26.152Z,8.82
2023-03-26T16:15:11.590Z,8.77
2023-03-26T16:18:15.360Z,8.85
2023-03-26T16:20:56.366Z,9.30
2023-03-26T16:23:47.925Z,9.31
2023-03-26T16:26:35.470Z,9.22
2023-03-26T16:29:22.493Z,9.28
2023-03-26T16:32:20.245Z,9.62
2023-03-26T16:35:02.052Z,9.54
2023-03-26T16:37:35.784Z,9.46
2023-03-26T16:40:16.736Z,9.73
2023-03-26T16:42:51.588Z,9.65
2023-03-26T16:46:09.024Z,8.43
2023-03-26T16:49:02.040Z,9.53
2023-03-26T16:51:39.839Z,9.42
2023-03-26T16:54:42.138Z,9.27
2023-03-26T16:57:28.791Z,9.16
2023-03-26T17:00:27.551Z,8.74
2023-03-26T17:03:42.359Z,8.19
2023-03-26T17:07:01.742Z,8.50
2023-03-26T17:10:04.339Z,8.48
2023-03-26T17:13:37.996Z,8.35
2023-03-26T17:16:23.362Z,8.44
2023-03-26T17:19:00.865Z,8.26
2023-03-26T17:21:49.827Z,8.90
2023-03-26T17:24:35.660Z,8.91
2023-03-26T17:27:47.391Z,8.57
2023-03-26T17:30:50.704Z,9.39
2023-03-26T17:33:48.715Z,9.26
2023-03-26T17:36:21.424Z,10.09
2023-03-26T17:39:04.677Z,8.98
2023-03-26T17:42:28.949Z,9.53
2023-03-26T17:45:20.566Z,9.48
2023-03-26T17:48:08.644Z,9.82
2023-03-26T17:50:54.385Z,9.38
2023-03-26T17:53:31.972Z,9.29
2023-03-26T17:56:14.192Z,9.19
2023-03-26T17:58:58.587Z,9.16
2023-03-26T18:01:44.780Z,8.99
2023-03-26T18:04:24.303Z,8.21
2023-03-26T18:07:27.686Z,8.42
2023-03-26T18:10:33.068Z,8.46
2023-03-26T18:13:16.409Z,8.49
2023-03-26T18:16:09.503Z,8.05
2023-03-26T18:18:49.563Z,7.73
2023-03-26T18:21:37.463Z,8.46
2023-03-26T18:24:18.166Z,8.24
2023-03-26T18:26:55.091Z,8.45
2023-03-26T18:29:35.498Z,8.48
2023-03-26T18:32:26.177Z,9.04
2023-03-26T18:35:18.674Z,8.53
2023-03-26T18:37:54.323Z,9.13
2023-03-26T18:40:39.895Z,9.30
2023-03-26T18:43:32.613Z,9.18
2023-03-26T18:46:06.343Z,8.73
2023-03-26T18:48:38.358Z,8.26
2023-03-26T18:51:12.615Z,8.52
2023-03-26T18:53:56.726Z,9.10
2023-03-26T18:56:41.633Z,8.79
2023-03-26T18:59:41.261Z,9.64
2023-03-26T19:02:14.516Z,9.22
2023-03-26T19:04:49.176Z,8.86
2023-03-26T19:07:26.486Z,9.09
2023-03-26T19:10:01.330Z,8.80
2023-03-26T19:12:33.966Z,9.13
2023-03-26T19:15:12.239Z,8.82
2023-03-26T19:17:53.422Z,9.32
2023-03-26T19:20:34.193Z,9.09
2023-03-26T19:23:08.620Z,8.91
2023-03-26T19:25:56.139Z,9.18
2023-03-26T19:28:40.301Z,9.57
2023-03-26T19:31:37.080Z,9.89
2023-03-26T19:34:19.990Z,9.15
2023-03-26T19:37:00.914Z,9.55
2023-03-26T19:39:42.696Z,9.13
2023-03-26T19:42:23.571Z,9.31
2023-03-26T19:45:03.852Z,10.31
2023-03-26T19:47:48.413Z,10.23
2023-03-26T19:50:28.032Z,9.43
2023-03-26T19:53:16.677Z,9.36
2023-03-26T19:56:06.252Z,9.43
2023-03-26T19:58:39.704Z,9.63
2023-03-26T20:01:21.264Z,9.99
2023-03-26T20:03:57.814Z,9.68
2023-03-26T20:09:23.700Z,9.62
2023-03-26T20:11:56.438Z,9.87
2023-03-26T20:14:31.286Z,9.57
2023-03-26T20:17:03.180Z,9.47
2023-03-26T20:19:35.417Z,9.82
2023-03-26T20:22:13.530Z,10.16
2023-03-26T20:24:45.340Z,10.20
2023-03-26T20:27:17.210Z,10.55
2023-03-26T20:29:49.136Z,10.11
2023-03-26T20:32:26.386Z,10.19
2023-03-26T20:34:58.649Z,9.91
2023-03-26T20:37:30.105Z,10.19
2023-03-26T20:40:02.008Z,8.81
2023-03-26T20:42:35.533Z,9.86
2023-03-26T20:45:23.935Z,9.85
2023-03-26T20:47:55.460Z,10.07
2023-03-26T20:50:27.270Z,10.07
2023-03-26T20:53:00.640Z,10.24
2023-03-26T20:55:32.342Z,9.89
2023-03-26T20:58:04.215Z,10.14
2023-03-26T21:00:37.217Z,9.97
2023-03-26T21:03:13.302Z,9.84
2023-03-26T21:05:48.331Z,9.91
2023-03-26T21:08:20.733Z,10.47
2023-03-26T21:10:52.562Z,10.44
2023-03-26T21:13:51.062Z,10.43
2023-03-26T21:16:23.201Z,10.84
2023-03-26T21:18:55.223Z,10.52
2023-03-26T21:21:52.459Z,10.32
2023-03-26T21:25:21.246Z,10.28
2023-03-26T21:28:29.155Z,10.32
2023-03-26T21:31:18.755Z,10.36
2023-03-26T21:33:51.810Z,10.33
2023-03-26T21:36:23.790Z,10.58
2023-03-26T21:38:55.662Z,10.69
2023-03-26T21:42:05.074Z,10.15
2023-03-26T21:44:37.547Z,9.97
2023-03-26T21:47:10.013Z,10.14
2023-03-26T21:49:41.948Z,10.03
2023-03-26T21:52:15.290Z,9.95
2023-03-26T21:54:47.680Z,9.97
2023-03-26T21:57:29.200Z,9.86
2023-03-26T22:00:18.499Z,9.97
2023-03-26T22:03:09.436Z,9.70
2023-03-26T22:06:07.030Z,9.53
2023-03-26T22:08:41.451Z,9.53
2023-03-26T22:11:12.974Z,9.47
2023-03-26T22:13:44.871Z,8.91
2023-03-26T22:16:18.915Z,9.08
2023-03-26T22:18:51.855Z,9.67
2023-03-26T22:21:23.662Z,9.32
2023-03-26T22:23:55.167Z,9.53
2023-03-26T22:26:27.058Z,9.61
2023-03-26T22:28:58.736Z,9.59
2023-03-26T22:31:30.682Z,9.35
2023-03-26T22:34:02.181Z,9.70
2023-03-26T22:36:35.238Z,9.65
2023-03-26T22:39:06.987Z,9.75
2023-03-26T22:41:39.049Z,9.96
2023-03-26T22:44:19.782Z,9.75
2023-03-26T22:46:52.361Z,9.97
2023-03-26T22:49:27.342Z,9.96
2023-03-26T22:51:58.997Z,9.31
2023-03-26T22:54:30.846Z,9.80
2023-03-26T22:57:03.911Z,9.58
2023-03-26T22:59:35.578Z,9.70
2023-03-26T23:02:09.751Z,9.44
2023-03-26T23:04:42.588Z,9.82
2023-03-26T23:07:14.924Z,9.91
2023-03-26T23:09:46.838Z,9.75
2023-03-26T23:12:18.335Z,9.91
2023-03-26T23:14:52.823Z,9.49
2023-03-26T23:17:24.899Z,8.87
2023-03-26T23:19:56.441Z,9.54
2023-03-26T23:22:28.491Z,9.59
2023-03-26T23:25:00.241Z,9.09
2023-03-26T23:27:32.910Z,9.43
2023-03-26T23:30:05.349Z,9.36
2023-03-26T23:32:38.119Z,9.52
2023-03-26T23:35:10.349Z,9.34
2023-03-26T23:37:42.480Z,9.29
2023-03-26T23:40:14.371Z,8.99
2023-03-26T23:42:47.377Z,9.35
2023-03-26T23:45:19.128Z,9.11
2023-03-26T23:47:50.687Z,9.19
2023-03-26T23:50:23.494Z,9.18
2023-03-26T23:52:58.770Z,9.26
2023-03-26T23:55:30.351Z,9.37
2023-03-26T23:58:03.318Z,9.39
